createdAt,value
2022-08-26T00:00:25.635Z,0.00
2022-08-26T00:01:29.844Z,0.00
2022-08-26T00:02:25.687Z,0.00
2022-08-26T00:03:25.593Z,0.00
2022-08-26T00:04:26.063Z,0.00
2022-08-26T00:05:25.574Z,0.00
2022-08-26T00:06:25.567Z,0.00
2022-08-26T00:07:25.556Z,0.00
2022-08-26T00:08:25.546Z,0.00
2022-08-26T00:09:25.559Z,0.00
2022-08-26T00:10:25.856Z,0.00
2022-08-26T00:11:26.272Z,0.00
2022-08-26T00:12:27.887Z,0.00
2022-08-26T00:13:26.488Z,0.00
2022-08-26T00:14:29.664Z,0.00
2022-08-26T00:15:26.468Z,0.00
2022-08-26T00:16:25.506Z,0.00
2022-08-26T00:17:25.449Z,0.00
2022-08-26T00:18:25.448Z,0.00
2022-08-26T00:19:25.434Z,0.00
2022-08-26T00:20:25.460Z,0.00
2022-08-26T00:21:25.425Z,0.00
2022-08-26T00:22:25.402Z,0.00
2022-08-26T00:23:25.402Z,0.00
2022-08-26T00:24:25.427Z,0.00
2022-08-26T00:25:25.392Z,0.00
2022-08-26T00:26:25.363Z,0.00
2022-08-26T00:27:25.353Z,0.00
2022-08-26T00:28:25.344Z,0.00
2022-08-26T00:29:25.338Z,0.00
2022-08-26T00:30:26.672Z,0.00
2022-08-26T00:31:25.377Z,0.00
2022-08-26T00:32:25.305Z,0.00
2022-08-26T00:33:25.300Z,0.00
2022-08-26T00:34:25.317Z,0.00
2022-08-26T00:35:25.286Z,0.00
2022-08-26T00:36:25.258Z,0.00
2022-08-26T00:37:25.257Z,0.00
2022-08-26T00:38:25.242Z,0.00
2022-08-26T00:39:25.237Z,0.00
2022-08-26T00:40:25.393Z,0.00
2022-08-26T00:41:25.219Z,0.00
2022-08-26T00:42:25.202Z,0.00
2022-08-26T00:43:25.200Z,0.00
2022-08-26T00:44:25.180Z,0.00
2022-08-26T00:45:25.274Z,0.00
2022-08-26T00:46:25.166Z,0.00
2022-08-26T00:47:25.165Z,0.00
2022-08-26T00:48:25.141Z,0.00
2022-08-26T00:49:25.140Z,0.00
2022-08-26T00:50:25.151Z,0.00
2022-08-26T00:51:25.123Z,0.00
2022-08-26T00:52:25.105Z,0.00
2022-08-26T00:53:27.804Z,0.00
2022-08-26T00:54:27.033Z,0.00
2022-08-26T00:55:25.105Z,0.00
2022-08-26T00:56:26.067Z,0.00
2022-08-26T00:57:25.057Z,0.00
2022-08-26T00:58:25.049Z,0.00
2022-08-26T00:59:25.037Z,0.00
2022-08-26T01:00:25.048Z,0.00
2022-08-26T01:01:25.073Z,0.00
2022-08-26T01:02:25.051Z,0.00
2022-08-26T01:03:24.998Z,0.00
2022-08-26T01:04:26.122Z,0.00
2022-08-26T01:05:25.005Z,0.00
2022-08-26T01:06:24.967Z,0.00
2022-08-26T01:07:24.961Z,0.00
2022-08-26T01:08:24.948Z,0.00
2022-08-26T01:09:24.942Z,0.00
2022-08-26T01:10:24.952Z,0.00
2022-08-26T01:11:24.930Z,0.00
2022-08-26T01:12:24.903Z,0.00
2022-08-26T01:13:24.902Z,0.00
2022-08-26T01:14:24.884Z,0.00
2022-08-26T01:15:24.913Z,0.00
2022-08-26T01:16:24.916Z,0.00
2022-08-26T01:17:24.875Z,0.00
2022-08-26T01:18:24.852Z,0.00
2022-08-26T01:19:24.843Z,0.00
2022-08-26T01:20:24.865Z,0.00
2022-08-26T01:21:24.830Z,0.00
2022-08-26T01:22:28.297Z,0.00
2022-08-26T01:23:24.807Z,0.00
2022-08-26T01:24:24.787Z,0.00
2022-08-26T01:25:24.806Z,0.00
2022-08-26T01:26:24.769Z,0.00
2022-08-26T01:27:24.779Z,0.00
2022-08-26T01:28:24.749Z,0.00
2022-08-26T01:29:24.745Z,0.00
2022-08-26T01:30:24.762Z,0.00
2022-08-26T01:31:24.782Z,0.00
2022-08-26T01:32:24.712Z,0.00
2022-08-26T01:33:24.700Z,0.00
2022-08-26T01:34:24.681Z,0.00
2022-08-26T01:35:24.711Z,0.00
2022-08-26T01:36:24.674Z,0.00
2022-08-26T01:37:24.673Z,0.00
2022-08-26T01:38:24.653Z,0.00
2022-08-26T01:39:24.642Z,0.00
2022-08-26T01:40:24.696Z,0.00
2022-08-26T01:41:27.513Z,0.00
2022-08-26T01:42:24.614Z,0.00
2022-08-26T01:43:24.595Z,0.00
2022-08-26T01:44:24.585Z,0.00
2022-08-26T01:45:24.632Z,0.00
2022-08-26T01:46:24.566Z,0.00
2022-08-26T01:47:24.557Z,0.00
2022-08-26T01:48:24.544Z,0.00
2022-08-26T01:49:24.537Z,0.00
2022-08-26T01:50:27.856Z,0.00
2022-08-26T01:51:25.526Z,0.00
2022-08-26T01:52:24.506Z,0.00
2022-08-26T01:53:24.498Z,0.00
2022-08-26T01:54:24.480Z,0.00
2022-08-26T01:55:33.409Z,0.00
2022-08-26T01:56:25.460Z,0.00
2022-08-26T01:57:25.452Z,0.00
2022-08-26T01:58:24.443Z,0.00
2022-08-26T01:59:24.432Z,0.00
2022-08-26T02:00:24.460Z,0.00
2022-08-26T02:01:24.451Z,0.00
2022-08-26T02:02:24.528Z,0.00
2022-08-26T02:03:24.445Z,0.00
2022-08-26T02:04:24.488Z,0.00
2022-08-26T02:05:24.395Z,0.00
2022-08-26T02:06:24.356Z,0.00
2022-08-26T02:07:24.367Z,0.00
2022-08-26T02:08:25.006Z,0.00
2022-08-26T02:09:24.333Z,0.00
2022-08-26T02:10:24.344Z,0.00
2022-08-26T02:11:24.320Z,0.00
2022-08-26T02:12:24.306Z,0.00
2022-08-26T02:13:24.328Z,0.00
2022-08-26T02:14:24.279Z,0.00
2022-08-26T02:15:24.296Z,0.00
2022-08-26T02:16:24.293Z,0.00
2022-08-26T02:17:24.249Z,0.00
2022-08-26T02:18:24.240Z,0.00
2022-08-26T02:19:24.231Z,0.00
2022-08-26T02:20:26.437Z,0.00
2022-08-26T02:21:24.890Z,0.00
2022-08-26T02:22:24.501Z,0.00
2022-08-26T02:23:24.434Z,0.00
2022-08-26T02:24:24.172Z,0.00
2022-08-26T02:25:24.202Z,0.00
2022-08-26T02:26:24.152Z,0.00
2022-08-26T02:27:24.152Z,0.00
2022-08-26T02:28:26.659Z,0.00
2022-08-26T02:29:24.131Z,0.00
2022-08-26T02:30:24.137Z,0.00
2022-08-26T02:31:24.193Z,0.00
2022-08-26T02:32:24.094Z,0.00
2022-08-26T02:33:24.096Z,0.00
2022-08-26T02:34:24.066Z,0.00
2022-08-26T02:35:24.087Z,0.00
2022-08-26T02:36:24.056Z,0.00
2022-08-26T02:37:24.046Z,0.00
2022-08-26T02:38:24.028Z,0.00
2022-08-26T02:39:24.030Z,0.00
2022-08-26T02:40:24.100Z,0.00
2022-08-26T02:41:24.008Z,0.00
2022-08-26T02:42:23.989Z,0.00
2022-08-26T02:43:31.719Z,0.00
2022-08-26T02:44:24.969Z,0.00
2022-08-26T02:45:23.994Z,0.00
2022-08-26T02:46:29.986Z,0.00
2022-08-26T02:47:24.987Z,0.00
2022-08-26T02:48:23.933Z,0.00
2022-08-26T02:49:23.922Z,0.00
2022-08-26T02:50:23.934Z,0.00
2022-08-26T02:51:23.903Z,0.00
2022-08-26T02:52:23.886Z,0.00
2022-08-26T02:53:25.440Z,0.00
2022-08-26T02:54:23.864Z,0.00
2022-08-26T02:55:24.725Z,0.00
2022-08-26T02:56:23.845Z,0.00
2022-08-26T02:57:23.844Z,0.00
2022-08-26T02:58:23.835Z,0.00
2022-08-26T02:59:24.375Z,0.00
2022-08-26T03:00:23.912Z,0.00
2022-08-26T03:01:23.886Z,0.00
2022-08-26T03:02:23.850Z,0.00
2022-08-26T03:03:23.899Z,0.00
2022-08-26T03:04:23.773Z,0.00
2022-08-26T03:05:23.997Z,0.00
2022-08-26T03:06:23.740Z,0.00
2022-08-26T03:07:23.740Z,0.00
2022-08-26T03:08:23.739Z,0.00
2022-08-26T03:09:23.731Z,0.00
2022-08-26T03:10:23.722Z,0.00
2022-08-26T03:11:23.727Z,0.00
2022-08-26T03:12:23.681Z,0.00
2022-08-26T03:13:23.686Z,0.00
2022-08-26T03:14:23.665Z,0.00
2022-08-26T03:15:23.682Z,0.00
2022-08-26T03:16:23.759Z,0.00
2022-08-26T03:17:23.648Z,0.00
2022-08-26T03:18:23.623Z,0.00
2022-08-26T03:19:23.614Z,0.00
2022-08-26T03:20:23.625Z,0.00
2022-08-26T03:21:23.596Z,0.00
2022-08-26T03:22:23.583Z,0.00
2022-08-26T03:23:23.576Z,0.00
2022-08-26T03:24:24.559Z,0.00
2022-08-26T03:25:23.585Z,0.00
2022-08-26T03:26:23.546Z,0.00
2022-08-26T03:27:23.552Z,0.00
2022-08-26T03:28:23.518Z,0.00
2022-08-26T03:29:23.518Z,0.00
2022-08-26T03:30:23.534Z,0.00
2022-08-26T03:31:24.600Z,0.00
2022-08-26T03:32:23.480Z,0.00
2022-08-26T03:33:23.479Z,0.00
2022-08-26T03:34:23.460Z,0.00
2022-08-26T03:35:23.480Z,0.00
2022-08-26T03:36:23.439Z,0.00
2022-08-26T03:37:23.441Z,0.00
2022-08-26T03:38:23.424Z,0.00
2022-08-26T03:39:23.411Z,0.00
2022-08-26T03:40:23.502Z,0.00
2022-08-26T03:41:23.395Z,0.00
2022-08-26T03:42:23.373Z,0.00
2022-08-26T03:43:23.375Z,0.00
2022-08-26T03:44:23.356Z,0.00
2022-08-26T03:45:23.379Z,0.00
2022-08-26T03:46:23.370Z,0.00
2022-08-26T03:47:23.339Z,0.00
2022-08-26T03:48:23.316Z,0.00
2022-08-26T03:49:23.317Z,0.00
2022-08-26T03:50:24.362Z,0.00
2022-08-26T03:51:23.307Z,0.00
2022-08-26T03:52:23.278Z,0.00
2022-08-26T03:53:23.290Z,0.00
2022-08-26T03:54:23.258Z,0.00
2022-08-26T03:55:23.641Z,0.00
2022-08-26T03:56:23.239Z,0.00
2022-08-26T03:57:23.230Z,0.00
2022-08-26T03:58:23.219Z,0.00
2022-08-26T03:59:23.162Z,1.00
2022-08-26T04:00:23.223Z,0.00
2022-08-26T04:01:23.218Z,0.00
2022-08-26T04:02:23.220Z,0.00
2022-08-26T04:03:23.223Z,0.00
2022-08-26T04:04:24.545Z,0.00
2022-08-26T04:05:23.138Z,1.00
2022-08-26T04:06:23.133Z,0.00
2022-08-26T04:07:23.124Z,0.00
2022-08-26T04:08:23.074Z,4.00
2022-08-26T04:09:23.064Z,3.00
2022-08-26T04:10:23.065Z,1.00
2022-08-26T04:11:24.034Z,5.00
2022-08-26T04:12:23.036Z,1.00
2022-08-26T04:13:23.017Z,1.00
2022-08-26T04:14:22.997Z,3.00
2022-08-26T04:15:23.017Z,3.00
2022-08-26T04:16:23.017Z,3.00
2022-08-26T04:17:24.996Z,4.00
2022-08-26T04:18:22.963Z,7.00
2022-08-26T04:19:22.957Z,5.00
2022-08-26T04:20:22.992Z,5.00
2022-08-26T04:21:22.953Z,6.00
2022-08-26T04:22:24.899Z,6.00
2022-08-26T04:23:22.909Z,8.00
2022-08-26T04:24:22.890Z,9.00
2022-08-26T04:25:24.218Z,9.00
2022-08-26T04:26:22.887Z,12.00
2022-08-26T04:27:22.871Z,12.00
2022-08-26T04:28:22.866Z,12.00
2022-08-26T04:29:22.853Z,15.00
2022-08-26T04:30:22.872Z,22.00
2022-08-26T04:31:22.862Z,26.00
2022-08-26T04:32:22.814Z,25.00
2022-08-26T04:33:33.078Z,29.00
2022-08-26T04:34:23.795Z,31.00
2022-08-26T04:35:25.626Z,34.00
2022-08-26T04:36:22.777Z,33.00
2022-08-26T04:37:22.769Z,36.00
2022-08-26T04:38:22.757Z,38.00
2022-08-26T04:39:22.746Z,43.00
2022-08-26T04:40:22.814Z,44.00
2022-08-26T04:41:22.729Z,45.00
2022-08-26T04:42:26.084Z,46.00
2022-08-26T04:43:22.709Z,50.00
2022-08-26T04:44:22.698Z,51.00
2022-08-26T04:45:23.024Z,56.00
2022-08-26T04:46:22.748Z,58.00
2022-08-26T04:47:22.660Z,60.00
2022-08-26T04:48:22.658Z,65.00
2022-08-26T04:49:22.641Z,64.00
2022-08-26T04:50:22.639Z,67.00
2022-08-26T04:51:22.649Z,69.00
2022-08-26T04:52:22.618Z,69.00
2022-08-26T04:53:22.601Z,75.00
2022-08-26T04:54:22.593Z,77.00
2022-08-26T04:55:25.327Z,81.00
2022-08-26T04:56:23.603Z,84.00
2022-08-26T04:57:22.564Z,84.00
2022-08-26T04:58:22.562Z,90.00
2022-08-26T04:59:22.544Z,89.00
2022-08-26T05:00:22.535Z,91.00
2022-08-26T05:01:22.571Z,92.00
2022-08-26T05:02:22.516Z,96.00
2022-08-26T05:03:22.517Z,103.00
2022-08-26T05:04:22.541Z,102.00
2022-08-26T05:05:22.477Z,109.00
2022-08-26T05:06:22.499Z,106.00
2022-08-26T05:07:22.466Z,107.00
2022-08-26T05:08:22.449Z,106.00
2022-08-26T05:09:22.446Z,110.00
2022-08-26T05:10:22.435Z,121.00
2022-08-26T05:11:22.449Z,123.00
2022-08-26T05:12:22.410Z,117.00
2022-08-26T05:13:22.400Z,118.00
2022-08-26T05:14:22.403Z,126.00
2022-08-26T05:15:22.378Z,134.00
2022-08-26T05:16:22.461Z,141.00
2022-08-26T05:17:22.352Z,137.00
2022-08-26T05:18:22.709Z,138.00
2022-08-26T05:19:22.333Z,139.00
2022-08-26T05:20:26.129Z,136.00
2022-08-26T05:21:22.340Z,133.00
2022-08-26T05:22:22.314Z,125.00
2022-08-26T05:23:22.303Z,139.00
2022-08-26T05:24:22.292Z,159.00
2022-08-26T05:25:22.306Z,176.00
2022-08-26T05:26:23.209Z,175.00
2022-08-26T05:27:22.255Z,150.00
2022-08-26T05:28:22.247Z,154.00
2022-08-26T05:29:22.239Z,157.00
2022-08-26T05:30:22.227Z,163.00
2022-08-26T05:31:22.265Z,180.00
2022-08-26T05:32:22.237Z,193.00
2022-08-26T05:33:22.196Z,186.00
2022-08-26T05:34:22.189Z,186.00
2022-08-26T05:35:22.168Z,195.00
2022-08-26T05:36:22.199Z,199.00
2022-08-26T05:37:22.149Z,200.00
2022-08-26T05:38:22.149Z,222.00
2022-08-26T05:39:22.130Z,328.00
2022-08-26T05:40:22.146Z,181.00
2022-08-26T05:41:22.140Z,151.00
2022-08-26T05:42:22.107Z,216.00
2022-08-26T05:43:22.091Z,242.00
2022-08-26T05:44:22.364Z,250.00
2022-08-26T05:45:22.074Z,252.00
2022-08-26T05:46:22.139Z,261.00
2022-08-26T05:47:22.044Z,253.00
2022-08-26T05:48:22.853Z,233.00
2022-08-26T05:49:22.504Z,262.00
2022-08-26T05:50:22.024Z,294.00
2022-08-26T05:51:25.884Z,295.00
2022-08-26T05:52:22.004Z,271.00
2022-08-26T05:53:21.992Z,257.00
2022-08-26T05:54:22.568Z,266.00
2022-08-26T05:55:21.976Z,294.00
2022-08-26T05:56:21.986Z,316.00
2022-08-26T05:57:23.242Z,287.00
2022-08-26T05:58:21.940Z,302.00
2022-08-26T05:59:24.588Z,315.00
2022-08-26T06:00:21.920Z,409.00
2022-08-26T06:01:21.970Z,389.00
2022-08-26T06:02:21.930Z,331.00
2022-08-26T06:03:21.888Z,375.00
2022-08-26T06:04:21.880Z,301.00
2022-08-26T06:05:21.861Z,276.00
2022-08-26T06:06:27.208Z,370.00
2022-08-26T06:07:22.843Z,346.00
2022-08-26T06:08:21.841Z,412.00
2022-08-26T06:09:21.823Z,348.00
2022-08-26T06:10:32.130Z,404.00
2022-08-26T06:11:22.833Z,393.00
2022-08-26T06:12:21.802Z,369.00
2022-08-26T06:13:21.785Z,410.00
2022-08-26T06:14:21.777Z,423.00
2022-08-26T06:15:21.775Z,397.00
2022-08-26T06:16:21.805Z,432.00
2022-08-26T06:17:21.746Z,429.00
2022-08-26T06:18:21.744Z,421.00
2022-08-26T06:19:22.144Z,452.00
2022-08-26T06:20:21.746Z,470.00
2022-08-26T06:21:21.727Z,499.00
2022-08-26T06:22:23.526Z,508.00
2022-08-26T06:23:21.679Z,505.00
2022-08-26T06:24:21.741Z,497.00
2022-08-26T06:25:22.670Z,478.00
2022-08-26T06:26:21.683Z,533.00
2022-08-26T06:27:21.650Z,501.00
2022-08-26T06:28:21.641Z,523.00
2022-08-26T06:29:24.526Z,523.00
2022-08-26T06:30:21.620Z,533.00
2022-08-26T06:31:21.698Z,572.00
2022-08-26T06:32:21.592Z,554.00
2022-08-26T06:33:21.601Z,571.00
2022-08-26T06:34:21.573Z,565.00
2022-08-26T06:35:21.560Z,531.00
2022-08-26T06:36:21.595Z,574.00
2022-08-26T06:37:21.545Z,528.00
2022-08-26T06:38:21.542Z,564.00
2022-08-26T06:39:21.524Z,563.00
2022-08-26T06:40:21.570Z,537.00
2022-08-26T06:41:21.536Z,535.00
2022-08-26T06:42:21.497Z,537.00
2022-08-26T06:43:21.476Z,545.00
2022-08-26T06:44:21.479Z,605.00
2022-08-26T06:45:21.467Z,485.00
2022-08-26T06:46:21.550Z,555.00
2022-08-26T06:47:21.438Z,541.00
2022-08-26T06:48:21.450Z,549.00
2022-08-26T06:49:25.739Z,598.00
2022-08-26T06:50:22.423Z,650.00
2022-08-26T06:51:22.370Z,675.00
2022-08-26T06:52:24.628Z,717.00
2022-08-26T06:53:21.371Z,865.00
2022-08-26T06:54:21.385Z,589.00
2022-08-26T06:55:21.361Z,419.00
2022-08-26T06:56:22.375Z,455.00
2022-08-26T06:57:21.342Z,417.00
2022-08-26T06:58:21.333Z,233.00
2022-08-26T06:59:21.314Z,178.00
2022-08-26T07:00:21.313Z,383.00
2022-08-26T07:01:21.398Z,326.00
2022-08-26T07:02:21.327Z,324.00
2022-08-26T07:03:21.274Z,347.00
2022-08-26T07:04:21.916Z,379.00
2022-08-26T07:05:21.255Z,410.00
2022-08-26T07:06:21.295Z,434.00
2022-08-26T07:07:22.001Z,392.00
2022-08-26T07:08:21.228Z,366.00
2022-08-26T07:09:21.281Z,482.00
2022-08-26T07:10:22.244Z,402.00
2022-08-26T07:11:21.218Z,400.00
2022-08-26T07:12:21.193Z,400.00
2022-08-26T07:13:30.514Z,412.00
2022-08-26T07:14:22.181Z,388.00
2022-08-26T07:15:23.893Z,429.00
2022-08-26T07:16:22.193Z,456.00
2022-08-26T07:17:21.130Z,447.00
2022-08-26T07:18:21.782Z,464.00
2022-08-26T07:19:21.164Z,469.00
2022-08-26T07:20:22.161Z,482.00
2022-08-26T07:21:21.114Z,446.00
2022-08-26T07:22:21.084Z,545.00
2022-08-26T07:23:21.073Z,430.00
2022-08-26T07:24:21.064Z,501.00
2022-08-26T07:25:21.054Z,524.00
2022-08-26T07:26:21.074Z,537.00
2022-08-26T07:27:21.053Z,551.00
2022-08-26T07:28:21.061Z,547.00
2022-08-26T07:29:21.007Z,573.00
2022-08-26T07:30:21.006Z,576.00
2022-08-26T07:31:21.038Z,622.00
2022-08-26T07:32:20.987Z,636.00
2022-08-26T07:33:20.972Z,622.00
2022-08-26T07:34:20.959Z,597.00
2022-08-26T07:35:20.948Z,557.00
2022-08-26T07:36:20.968Z,614.00
2022-08-26T07:37:20.929Z,553.00
2022-08-26T07:38:20.942Z,580.00
2022-08-26T07:39:20.921Z,575.00
2022-08-26T07:40:20.938Z,692.00
2022-08-26T07:41:20.953Z,627.00
2022-08-26T07:42:20.882Z,607.00
2022-08-26T07:43:20.872Z,616.00
2022-08-26T07:44:20.864Z,596.00
2022-08-26T07:45:20.853Z,713.00
2022-08-26T07:46:29.905Z,672.00
2022-08-26T07:47:25.859Z,760.00
2022-08-26T07:48:21.444Z,765.00
2022-08-26T07:49:20.920Z,772.00
2022-08-26T07:50:20.899Z,731.00
2022-08-26T07:51:21.788Z,752.00
2022-08-26T07:52:25.998Z,730.00
2022-08-26T07:53:21.767Z,735.00
2022-08-26T07:54:20.757Z,722.00
2022-08-26T07:55:21.756Z,755.00
2022-08-26T07:56:20.748Z,774.00
2022-08-26T07:57:20.748Z,784.00
2022-08-26T07:58:20.719Z,642.00
2022-08-26T07:59:20.717Z,802.00
2022-08-26T08:00:20.766Z,664.00
2022-08-26T08:01:20.769Z,862.00
2022-08-26T08:02:20.704Z,456.00
2022-08-26T08:03:20.667Z,1087.00
2022-08-26T08:04:26.240Z,943.00
2022-08-26T08:05:21.786Z,917.00
2022-08-26T08:06:20.643Z,1351.00
2022-08-26T08:07:20.652Z,1222.00
2022-08-26T08:08:27.771Z,1556.00
2022-08-26T08:09:22.379Z,1684.00
2022-08-26T08:10:20.826Z,2086.00
2022-08-26T08:11:20.624Z,2001.00
2022-08-26T08:12:20.636Z,1567.00
2022-08-26T08:13:20.566Z,695.00
2022-08-26T08:14:22.225Z,1479.00
2022-08-26T08:15:20.547Z,1701.00
2022-08-26T08:16:20.583Z,670.00
2022-08-26T08:17:20.547Z,646.00
2022-08-26T08:18:20.764Z,429.00
2022-08-26T08:19:20.509Z,560.00
2022-08-26T08:20:20.509Z,1196.00
2022-08-26T08:21:21.628Z,999.00
2022-08-26T08:22:20.511Z,1156.00
2022-08-26T08:23:20.469Z,1414.00
2022-08-26T08:24:20.461Z,1020.00
2022-08-26T08:25:20.452Z,1042.00
2022-08-26T08:26:20.468Z,1089.00
2022-08-26T08:27:23.793Z,1481.00
2022-08-26T08:28:20.427Z,3810.00
2022-08-26T08:29:20.411Z,3803.00
2022-08-26T08:30:22.686Z,4411.00
2022-08-26T08:31:38.777Z,8671.00
2022-08-26T08:32:21.391Z,1673.00
2022-08-26T08:33:20.363Z,3784.00
2022-08-26T08:34:21.618Z,5196.00
2022-08-26T08:35:20.354Z,6711.00
2022-08-26T08:36:20.535Z,6480.00
2022-08-26T08:37:20.326Z,5808.00
2022-08-26T08:38:20.322Z,4489.00
2022-08-26T08:39:20.311Z,5693.00
2022-08-26T08:40:20.482Z,4656.00
2022-08-26T08:41:20.317Z,7134.00
2022-08-26T08:42:20.288Z,5081.00
2022-08-26T08:43:20.269Z,5480.00
2022-08-26T08:44:20.347Z,8287.00
2022-08-26T08:45:20.252Z,8591.00
2022-08-26T08:46:20.328Z,9576.00
2022-08-26T08:47:20.754Z,9510.00
2022-08-26T08:48:20.263Z,9807.00
2022-08-26T08:49:20.210Z,10657.00
2022-08-26T08:50:20.214Z,9087.00
2022-08-26T08:51:20.184Z,10152.00
2022-08-26T08:52:20.253Z,10486.00
2022-08-26T08:53:20.174Z,10017.00
2022-08-26T08:54:21.989Z,9788.00
2022-08-26T08:55:20.154Z,9988.00
2022-08-26T08:56:20.212Z,10393.00
2022-08-26T08:57:20.156Z,10518.00
2022-08-26T08:58:20.125Z,10518.00
2022-08-26T08:59:20.117Z,11309.00
2022-08-26T09:00:20.106Z,9544.00
2022-08-26T09:01:21.164Z,11155.00
2022-08-26T09:02:20.188Z,11718.00
2022-08-26T09:03:20.079Z,8681.00
2022-08-26T09:04:20.060Z,8128.00
2022-08-26T09:05:20.070Z,7320.00
2022-08-26T09:06:20.077Z,5965.00
2022-08-26T09:07:20.070Z,7307.00
2022-08-26T09:08:20.117Z,7188.00
2022-08-26T09:09:20.024Z,7663.00
2022-08-26T09:10:20.012Z,6596.00
2022-08-26T09:11:20.027Z,8541.00
2022-08-26T09:12:20.011Z,8448.00
2022-08-26T09:13:25.234Z,7731.00
2022-08-26T09:14:20.965Z,5756.00
2022-08-26T09:15:19.963Z,7443.00
2022-08-26T09:16:20.258Z,9183.00
2022-08-26T09:17:19.976Z,10740.00
2022-08-26T09:18:19.955Z,9264.00
2022-08-26T09:19:19.926Z,10732.00
2022-08-26T09:20:19.926Z,9503.00
2022-08-26T09:21:19.913Z,8945.00
2022-08-26T09:22:19.919Z,7849.00
2022-08-26T09:23:19.889Z,9605.00
2022-08-26T09:24:19.889Z,9648.00
2022-08-26T09:25:19.901Z,10198.00
2022-08-26T09:26:19.859Z,7565.00
2022-08-26T09:27:19.907Z,7990.00
2022-08-26T09:28:19.853Z,10996.00
2022-08-26T09:30:19.831Z,8296.00
2022-08-26T09:31:19.835Z,9021.00
2022-08-26T09:32:21.090Z,8857.00
2022-08-26T09:33:19.832Z,8717.00
2022-08-26T09:34:19.786Z,12883.00
2022-08-26T09:35:19.775Z,8350.00
2022-08-26T09:36:19.775Z,7119.00
2022-08-26T09:37:19.778Z,5007.00
2022-08-26T09:38:19.746Z,5389.00
2022-08-26T09:39:19.747Z,8855.00
2022-08-26T09:40:20.379Z,9583.00
2022-08-26T09:41:19.720Z,9099.00
2022-08-26T09:42:19.747Z,8959.00
2022-08-26T09:43:22.821Z,9282.00
2022-08-26T09:44:19.691Z,9298.00
2022-08-26T09:45:19.693Z,9286.00
2022-08-26T09:46:19.825Z,9210.00
2022-08-26T09:47:19.690Z,9229.00
2022-08-26T09:48:19.651Z,9361.00
2022-08-26T09:49:19.649Z,8806.00
2022-08-26T09:50:19.630Z,8856.00
2022-08-26T09:51:19.641Z,8999.00
2022-08-26T09:52:19.643Z,8844.00
2022-08-26T09:53:21.045Z,9107.00
2022-08-26T09:54:20.753Z,9098.00
2022-08-26T09:55:19.592Z,9041.00
2022-08-26T09:56:19.604Z,9048.00
2022-08-26T09:57:19.572Z,9108.00
2022-08-26T09:58:19.562Z,9102.00
2022-08-26T09:59:19.557Z,9248.00
2022-08-26T10:00:19.547Z,9274.00
2022-08-26T10:01:19.644Z,9316.00
2022-08-26T10:02:19.545Z,9323.00
2022-08-26T10:03:19.531Z,9220.00
2022-08-26T10:04:19.534Z,9396.00
2022-08-26T10:05:20.046Z,9421.00
2022-08-26T10:06:21.008Z,9430.00
2022-08-26T10:07:19.481Z,9552.00
2022-08-26T10:08:19.470Z,9513.00
2022-08-26T10:09:19.472Z,9507.00
2022-08-26T10:10:19.452Z,9564.00
2022-08-26T10:11:19.452Z,9759.00
2022-08-26T10:12:19.454Z,11211.00
2022-08-26T10:13:19.423Z,12413.00
2022-08-26T10:14:20.281Z,7249.00
2022-08-26T10:15:19.411Z,3599.00
2022-08-26T10:16:19.415Z,4322.00
2022-08-26T10:17:19.414Z,9540.00
2022-08-26T10:18:19.395Z,7726.00
2022-08-26T10:19:19.375Z,6009.00
2022-08-26T10:20:23.169Z,6340.00
2022-08-26T10:21:19.357Z,6166.00
2022-08-26T10:22:19.367Z,1890.00
2022-08-26T10:23:19.340Z,5175.00
2022-08-26T10:24:19.326Z,9612.00
2022-08-26T10:25:19.324Z,4917.00
2022-08-26T10:26:19.305Z,4159.00
2022-08-26T10:27:19.320Z,9424.00
2022-08-26T10:28:19.293Z,9503.00
2022-08-26T10:29:19.281Z,9611.00
2022-08-26T10:30:19.271Z,9779.00
2022-08-26T10:31:19.964Z,9544.00
2022-08-26T10:32:19.397Z,9604.00
2022-08-26T10:33:19.252Z,9293.00
2022-08-26T10:34:19.240Z,9493.00
2022-08-26T10:35:19.233Z,9988.00
2022-08-26T10:36:20.289Z,10861.00
2022-08-26T10:37:19.243Z,8344.00
2022-08-26T10:38:19.195Z,4924.00
2022-08-26T10:39:19.197Z,5481.00
2022-08-26T10:40:19.223Z,7262.00
2022-08-26T10:41:19.179Z,8630.00
2022-08-26T10:42:19.188Z,9053.00
2022-08-26T10:43:19.155Z,9021.00
2022-08-26T10:44:19.147Z,9115.00
2022-08-26T10:45:19.136Z,8995.00
2022-08-26T10:46:19.155Z,8852.00
2022-08-26T10:47:19.139Z,8716.00
2022-08-26T10:48:19.108Z,8716.00
2022-08-26T10:49:19.100Z,8767.00
2022-08-26T10:50:19.082Z,8663.00
2022-08-26T10:51:19.081Z,8972.00
2022-08-26T10:52:19.091Z,8605.00
2022-08-26T10:53:19.072Z,8695.00
2022-08-26T10:54:20.063Z,8579.00
2022-08-26T10:55:19.072Z,8561.00
2022-08-26T10:56:19.433Z,8327.00
2022-08-26T10:57:19.073Z,8432.00
2022-08-26T10:58:26.428Z,8206.00
2022-08-26T10:59:20.015Z,8510.00
2022-08-26T11:00:19.011Z,8326.00
2022-08-26T11:01:22.992Z,8262.00
2022-08-26T11:02:24.185Z,8019.00
2022-08-26T11:03:22.495Z,8479.00
2022-08-26T11:04:19.021Z,8140.00
2022-08-26T11:05:18.956Z,8197.00
2022-08-26T11:06:18.944Z,8259.00
2022-08-26T11:07:18.959Z,8074.00
2022-08-26T11:08:18.930Z,8085.00
2022-08-26T11:09:18.920Z,8372.00
2022-08-26T11:10:19.945Z,10077.00
2022-08-26T11:11:18.901Z,5452.00
2022-08-26T11:12:18.911Z,7180.00
2022-08-26T11:13:18.881Z,7631.00
2022-08-26T11:14:18.871Z,7856.00
2022-08-26T11:15:19.866Z,8007.00
2022-08-26T11:16:19.882Z,8246.00
2022-08-26T11:17:18.873Z,8384.00
2022-08-26T11:18:18.834Z,8470.00
2022-08-26T11:19:18.834Z,8525.00
2022-08-26T11:20:19.823Z,8851.00
2022-08-26T11:21:18.822Z,9098.00
2022-08-26T11:22:19.853Z,6770.00
2022-08-26T11:23:18.795Z,7784.00
2022-08-26T11:24:18.797Z,8242.00
2022-08-26T11:25:18.777Z,8037.00
2022-08-26T11:26:35.422Z,8669.00
2022-08-26T11:27:19.787Z,8223.00
2022-08-26T11:28:18.749Z,8019.00
2022-08-26T11:29:18.739Z,8299.00
2022-08-26T11:30:18.740Z,7672.00
2022-08-26T11:31:18.847Z,8516.00
2022-08-26T11:32:18.747Z,8370.00
2022-08-26T11:33:18.718Z,8433.00
2022-08-26T11:34:18.703Z,8452.00
2022-08-26T11:35:18.693Z,7802.00
2022-08-26T11:36:18.679Z,8178.00
2022-08-26T11:38:18.673Z,7875.00
2022-08-26T11:39:18.653Z,8055.00
2022-08-26T11:40:18.695Z,8362.00
2022-08-26T11:41:18.653Z,7951.00
2022-08-26T11:42:20.184Z,8241.00
2022-08-26T11:43:18.627Z,8469.00
2022-08-26T11:44:18.617Z,7866.00
2022-08-26T11:45:18.605Z,8296.00
2022-08-26T11:46:18.654Z,2263.00
2022-08-26T11:47:18.706Z,7800.00
2022-08-26T11:48:18.570Z,7859.00
2022-08-26T11:49:18.579Z,5095.00
2022-08-26T11:50:18.575Z,6957.00
2022-08-26T11:51:18.556Z,5645.00
2022-08-26T11:52:18.565Z,4537.00
2022-08-26T11:53:18.531Z,6427.00
2022-08-26T11:54:30.540Z,5613.00
2022-08-26T11:55:19.523Z,5919.00
2022-08-26T11:56:18.501Z,4996.00
2022-08-26T11:57:18.519Z,1988.00
2022-08-26T11:58:18.482Z,5707.00
2022-08-26T11:59:18.494Z,5209.00
2022-08-26T12:00:22.190Z,3207.00
2022-08-26T12:01:18.461Z,3973.00
2022-08-26T12:02:18.473Z,3920.00
2022-08-26T12:03:18.581Z,4941.00
2022-08-26T12:04:18.486Z,925.00
2022-08-26T12:05:18.428Z,3076.00
2022-08-26T12:06:18.438Z,4304.00
2022-08-26T12:07:24.207Z,2715.00
2022-08-26T12:08:19.433Z,2579.00
2022-08-26T12:09:18.398Z,3065.00
2022-08-26T12:10:18.377Z,2659.00
2022-08-26T12:11:18.377Z,3060.00
2022-08-26T12:12:18.379Z,2690.00
2022-08-26T12:13:18.350Z,2620.00
2022-08-26T12:14:18.338Z,1935.00
2022-08-26T12:15:18.330Z,1830.00
2022-08-26T12:16:18.364Z,1953.00
2022-08-26T12:17:18.340Z,1479.00
2022-08-26T12:18:18.304Z,1133.00
2022-08-26T12:19:19.302Z,1374.00
2022-08-26T12:20:18.284Z,1285.00
2022-08-26T12:21:18.282Z,1264.00
2022-08-26T12:22:18.264Z,1189.00
2022-08-26T12:23:18.283Z,1200.00
2022-08-26T12:24:18.244Z,1283.00
2022-08-26T12:25:18.247Z,1259.00
2022-08-26T12:26:18.225Z,1168.00
2022-08-26T12:27:18.229Z,1150.00
2022-08-26T12:28:18.227Z,1058.00
2022-08-26T12:29:26.456Z,1255.00
2022-08-26T12:30:19.386Z,1329.00
2022-08-26T12:31:18.250Z,1350.00
2022-08-26T12:32:18.181Z,1538.00
2022-08-26T12:33:22.950Z,1333.00
2022-08-26T12:34:19.151Z,1444.00
2022-08-26T12:35:18.150Z,1276.00
2022-08-26T12:36:18.161Z,1283.00
2022-08-26T12:37:18.867Z,1432.00
2022-08-26T12:38:18.142Z,1255.00
2022-08-26T12:39:18.111Z,1589.00